sensor_id;sensor_type;location;lat;lon;timestamp;temperature;humidity
20977;DHT22;10647;51.016;3.720;2023-05-10T00:00:36;15.00;99.90
20977;DHT22;10647;51.016;3.720;2023-05-10T00:03:03;15.00;99.90
20977;DHT22;10647;51.016;3.720;2023-05-10T00:05:32;15.00;99.90
20977;DHT22;10647;51.016;3.720;2023-05-10T00:07:59;15.00;99.90
20977;DHT22;10647;51.016;3.720;2023-05-10T00:10:28;15.00;99.90
20977;DHT22;10647;51.016;3.720;2023-05-10T00:12:55;15.10;99.90
20977;DHT22;10647;51.016;3.720;2023-05-10T00:15:23;15.10;99.90
20977;DHT22;10647;51.016;3.720;2023-05-10T00:17:51;15.10;99.90
20977;DHT22;10647;51.016;3.720;2023-05-10T00:20:18;15.10;99.90
20977;DHT22;10647;51.016;3.720;2023-05-10T00:22:46;15.10;99.90
20977;DHT22;10647;51.016;3.720;2023-05-10T00:25:13;15.10;99.90
20977;DHT22;10647;51.016;3.720;2023-05-10T00:27:41;15.00;99.90
20977;DHT22;10647;51.016;3.720;2023-05-10T00:30:08;15.10;99.90
20977;DHT22;10647;51.016;3.720;2023-05-10T00:32:36;15.10;99.90
20977;DHT22;10647;51.016;3.720;2023-05-10T00:35:04;15.10;99.90
20977;DHT22;10647;51.016;3.720;2023-05-10T00:37:31;15.10;99.90
20977;DHT22;10647;51.016;3.720;2023-05-10T00:39:59;15.10;99.90
20977;DHT22;10647;51.016;3.720;2023-05-10T00:42:27;15.10;99.90
20977;DHT22;10647;51.016;3.720;2023-05-10T00:44:54;15.10;99.90
20977;DHT22;10647;51.016;3.720;2023-05-10T00:47:23;15.10;99.90
20977;DHT22;10647;51.016;3.720;2023-05-10T00:49:50;15.00;99.90
20977;DHT22;10647;51.016;3.720;2023-05-10T00:52:19;14.90;99.90
20977;DHT22;10647;51.016;3.720;2023-05-10T00:54:47;15.00;99.90
20977;DHT22;10647;51.016;3.720;2023-05-10T00:57:14;15.10;99.90
20977;DHT22;10647;51.016;3.720;2023-05-10T00:59:42;15.10;99.90
20977;DHT22;10647;51.016;3.720;2023-05-10T01:02:10;15.10;99.90
20977;DHT22;10647;51.016;3.720;2023-05-10T01:04:38;15.10;99.90
20977;DHT22;10647;51.016;3.720;2023-05-10T01:07:06;15.20;99.90
20977;DHT22;10647;51.016;3.720;2023-05-10T01:09:34;15.20;99.90
20977;DHT22;10647;51.016;3.720;2023-05-10T01:12:02;15.20;99.90
20977;DHT22;10647;51.016;3.720;2023-05-10T01:14:30;15.10;99.90
20977;DHT22;10647;51.016;3.720;2023-05-10T01:16:58;15.00;99.90
20977;DHT22;10647;51.016;3.720;2023-05-10T01:19:28;15.00;99.90
20977;DHT22;10647;51.016;3.720;2023-05-10T01:22:19;15.10;99.90
20977;DHT22;10647;51.016;3.720;2023-05-10T01:42:03;14.80;99.90
20977;DHT22;10647;51.016;3.720;2023-05-10T01:47:46;14.80;99.90
20977;DHT22;10647;51.016;3.720;2023-05-10T01:50:19;14.80;99.90
20977;DHT22;10647;51.016;3.720;2023-05-10T01:52:55;14.80;99.90
20977;DHT22;10647;51.016;3.720;2023-05-10T02:01:02;14.80;99.90
20977;DHT22;10647;51.016;3.720;2023-05-10T02:03:32;14.80;99.90
20977;DHT22;10647;51.016;3.720;2023-05-10T02:06:02;14.80;99.90
20977;DHT22;10647;51.016;3.720;2023-05-10T02:11:20;14.90;99.90
20977;DHT22;10647;51.016;3.720;2023-05-10T02:13:49;14.90;99.90
20977;DHT22;10647;51.016;3.720;2023-05-10T02:16:19;14.90;99.90
20977;DHT22;10647;51.016;3.720;2023-05-10T02:18:48;14.80;99.90
20977;DHT22;10647;51.016;3.720;2023-05-10T02:21:21;14.90;99.90
20977;DHT22;10647;51.016;3.720;2023-05-10T02:23:52;14.80;99.90
20977;DHT22;10647;51.016;3.720;2023-05-10T02:26:22;14.80;99.90
20977;DHT22;10647;51.016;3.720;2023-05-10T02:28:52;14.90;99.90
20977;DHT22;10647;51.016;3.720;2023-05-10T02:31:21;14.80;99.90
20977;DHT22;10647;51.016;3.720;2023-05-10T02:33:50;14.90;99.90
20977;DHT22;10647;51.016;3.720;2023-05-10T02:36:20;14.90;99.90
20977;DHT22;10647;51.016;3.720;2023-05-10T02:38:51;14.90;99.90
20977;DHT22;10647;51.016;3.720;2023-05-10T02:41:20;14.90;99.90
20977;DHT22;10647;51.016;3.720;2023-05-10T02:43:55;14.90;99.90
20977;DHT22;10647;51.016;3.720;2023-05-10T02:46:28;14.90;99.90
20977;DHT22;10647;51.016;3.720;2023-05-10T02:49:02;14.80;99.90
20977;DHT22;10647;51.016;3.720;2023-05-10T02:54:24;14.70;99.90
20977;DHT22;10647;51.016;3.720;2023-05-10T02:56:54;14.80;99.90
20977;DHT22;10647;51.016;3.720;2023-05-10T02:59:22;14.80;99.90
20977;DHT22;10647;51.016;3.720;2023-05-10T03:01:49;14.80;99.90
20977;DHT22;10647;51.016;3.720;2023-05-10T03:04:17;14.90;99.90
20977;DHT22;10647;51.016;3.720;2023-05-10T03:06:45;15.00;99.90
20977;DHT22;10647;51.016;3.720;2023-05-10T03:09:13;14.90;99.90
20977;DHT22;10647;51.016;3.720;2023-05-10T03:11:56;14.90;99.90
20977;DHT22;10647;51.016;3.720;2023-05-10T03:15:00;14.80;99.90
20977;DHT22;10647;51.016;3.720;2023-05-10T03:17:30;14.80;99.90
20977;DHT22;10647;51.016;3.720;2023-05-10T03:20:03;14.90;99.90
20977;DHT22;10647;51.016;3.720;2023-05-10T03:22:47;14.90;99.90
20977;DHT22;10647;51.016;3.720;2023-05-10T03:25:15;14.90;99.90
20977;DHT22;10647;51.016;3.720;2023-05-10T03:30:28;14.80;99.90
20977;DHT22;10647;51.016;3.720;2023-05-10T03:32:56;14.90;99.90
20977;DHT22;10647;51.016;3.720;2023-05-10T03:35:26;14.90;99.90
20977;DHT22;10647;51.016;3.720;2023-05-10T03:37:54;14.90;99.90
20977;DHT22;10647;51.016;3.720;2023-05-10T03:40:23;14.90;99.90
20977;DHT22;10647;51.016;3.720;2023-05-10T03:42:51;14.90;99.90
20977;DHT22;10647;51.016;3.720;2023-05-10T03:45:18;14.90;99.90
20977;DHT22;10647;51.016;3.720;2023-05-10T03:47:46;14.90;99.90
20977;DHT22;10647;51.016;3.720;2023-05-10T03:50:14;14.90;99.90
20977;DHT22;10647;51.016;3.720;2023-05-10T03:52:41;14.90;99.90
20977;DHT22;10647;51.016;3.720;2023-05-10T03:55:09;14.80;99.90
20977;DHT22;10647;51.016;3.720;2023-05-10T03:57:36;14.90;99.90
20977;DHT22;10647;51.016;3.720;2023-05-10T04:00:04;15.00;99.90
20977;DHT22;10647;51.016;3.720;2023-05-10T04:02:32;15.00;99.90
20977;DHT22;10647;51.016;3.720;2023-05-10T04:05:00;15.00;99.90
20977;DHT22;10647;51.016;3.720;2023-05-10T04:07:27;15.00;99.90
20977;DHT22;10647;51.016;3.720;2023-05-10T04:09:55;15.00;99.90
20977;DHT22;10647;51.016;3.720;2023-05-10T04:12:23;15.10;99.90
20977;DHT22;10647;51.016;3.720;2023-05-10T04:14:51;15.10;99.90
20977;DHT22;10647;51.016;3.720;2023-05-10T04:17:18;15.10;99.90
20977;DHT22;10647;51.016;3.720;2023-05-10T04:19:46;15.10;99.90
20977;DHT22;10647;51.016;3.720;2023-05-10T04:22:14;15.10;99.90
20977;DHT22;10647;51.016;3.720;2023-05-10T04:24:42;15.20;99.90
20977;DHT22;10647;51.016;3.720;2023-05-10T04:27:09;15.20;99.90
20977;DHT22;10647;51.016;3.720;2023-05-10T04:29:38;15.20;99.90
20977;DHT22;10647;51.016;3.720;2023-05-10T04:32:05;15.20;99.90
20977;DHT22;10647;51.016;3.720;2023-05-10T04:34:33;15.30;99.90
20977;DHT22;10647;51.016;3.720;2023-05-10T04:37:00;15.30;99.90
20977;DHT22;10647;51.016;3.720;2023-05-10T04:39:28;15.30;99.90
20977;DHT22;10647;51.016;3.720;2023-05-10T04:41:55;15.30;99.90
20977;DHT22;10647;51.016;3.720;2023-05-10T04:44:23;15.40;99.90
20977;DHT22;10647;51.016;3.720;2023-05-10T04:46:50;15.40;99.90
20977;DHT22;10647;51.016;3.720;2023-05-10T04:49:18;15.40;99.90
20977;DHT22;10647;51.016;3.720;2023-05-10T04:51:46;15.40;99.90
20977;DHT22;10647;51.016;3.720;2023-05-10T04:54:13;15.40;99.90
20977;DHT22;10647;51.016;3.720;2023-05-10T04:56:42;15.50;99.90
20977;DHT22;10647;51.016;3.720;2023-05-10T04:59:09;15.60;99.90
20977;DHT22;10647;51.016;3.720;2023-05-10T05:01:37;15.50;99.90
20977;DHT22;10647;51.016;3.720;2023-05-10T05:04:06;15.60;99.90
20977;DHT22;10647;51.016;3.720;2023-05-10T05:06:34;15.60;99.90
20977;DHT22;10647;51.016;3.720;2023-05-10T05:09:02;15.70;99.90
20977;DHT22;10647;51.016;3.720;2023-05-10T05:11:30;15.70;99.90
20977;DHT22;10647;51.016;3.720;2023-05-10T05:13:57;15.80;99.90
20977;DHT22;10647;51.016;3.720;2023-05-10T05:16:25;15.80;99.90
20977;DHT22;10647;51.016;3.720;2023-05-10T05:18:53;15.80;99.90
20977;DHT22;10647;51.016;3.720;2023-05-10T05:21:20;15.80;99.90
20977;DHT22;10647;51.016;3.720;2023-05-10T05:23:48;15.80;99.90
20977;DHT22;10647;51.016;3.720;2023-05-10T05:26:22;15.80;99.90
20977;DHT22;10647;51.016;3.720;2023-05-10T05:28:52;15.90;99.90
20977;DHT22;10647;51.016;3.720;2023-05-10T05:31:22;15.90;99.90
20977;DHT22;10647;51.016;3.720;2023-05-10T05:33:49;16.00;99.90
20977;DHT22;10647;51.016;3.720;2023-05-10T05:36:18;16.00;99.90
20977;DHT22;10647;51.016;3.720;2023-05-10T05:38:46;16.10;99.90
20977;DHT22;10647;51.016;3.720;2023-05-10T05:41:14;16.10;99.90
20977;DHT22;10647;51.016;3.720;2023-05-10T05:43:41;16.10;99.90
20977;DHT22;10647;51.016;3.720;2023-05-10T05:46:09;16.10;99.90
20977;DHT22;10647;51.016;3.720;2023-05-10T05:48:36;16.20;99.90
20977;DHT22;10647;51.016;3.720;2023-05-10T05:51:04;16.30;99.90
20977;DHT22;10647;51.016;3.720;2023-05-10T05:53:32;16.30;99.90
20977;DHT22;10647;51.016;3.720;2023-05-10T05:56:00;16.30;99.90
20977;DHT22;10647;51.016;3.720;2023-05-10T05:58:28;16.40;99.90
20977;DHT22;10647;51.016;3.720;2023-05-10T06:00:56;16.30;99.90
20977;DHT22;10647;51.016;3.720;2023-05-10T06:03:24;16.30;99.90
20977;DHT22;10647;51.016;3.720;2023-05-10T06:05:51;16.30;99.90
20977;DHT22;10647;51.016;3.720;2023-05-10T06:08:19;16.40;99.90
20977;DHT22;10647;51.016;3.720;2023-05-10T06:10:46;16.30;99.90
20977;DHT22;10647;51.016;3.720;2023-05-10T06:13:14;16.40;99.90
20977;DHT22;10647;51.016;3.720;2023-05-10T06:15:42;16.60;99.90
20977;DHT22;10647;51.016;3.720;2023-05-10T06:18:09;16.80;99.90
20977;DHT22;10647;51.016;3.720;2023-05-10T06:20:37;16.90;99.90
20977;DHT22;10647;51.016;3.720;2023-05-10T06:23:05;16.80;99.90
20977;DHT22;10647;51.016;3.720;2023-05-10T06:25:33;16.90;99.90
20977;DHT22;10647;51.016;3.720;2023-05-10T06:28:00;16.90;99.90
20977;DHT22;10647;51.016;3.720;2023-05-10T06:30:28;17.10;99.90
20977;DHT22;10647;51.016;3.720;2023-05-10T06:32:57;17.40;99.90
20977;DHT22;10647;51.016;3.720;2023-05-10T06:35:26;17.40;99.90
20977;DHT22;10647;51.016;3.720;2023-05-10T06:37:55;17.40;99.90
20977;DHT22;10647;51.016;3.720;2023-05-10T06:40:22;17.30;99.90
20977;DHT22;10647;51.016;3.720;2023-05-10T06:42:50;17.30;99.90
20977;DHT22;10647;51.016;3.720;2023-05-10T06:45:18;17.30;99.90
20977;DHT22;10647;51.016;3.720;2023-05-10T06:47:46;17.20;99.90
20977;DHT22;10647;51.016;3.720;2023-05-10T06:50:14;17.20;99.90
20977;DHT22;10647;51.016;3.720;2023-05-10T06:52:41;17.30;99.90
20977;DHT22;10647;51.016;3.720;2023-05-10T06:55:10;17.30;99.90
20977;DHT22;10647;51.016;3.720;2023-05-10T06:57:38;17.40;99.90
20977;DHT22;10647;51.016;3.720;2023-05-10T07:00:07;17.60;99.90
20977;DHT22;10647;51.016;3.720;2023-05-10T07:02:36;17.30;99.90
20977;DHT22;10647;51.016;3.720;2023-05-10T07:05:04;17.20;99.90
20977;DHT22;10647;51.016;3.720;2023-05-10T07:07:31;17.20;99.90
20977;DHT22;10647;51.016;3.720;2023-05-10T07:09:59;17.30;99.90
20977;DHT22;10647;51.016;3.720;2023-05-10T07:12:27;17.20;99.90
20977;DHT22;10647;51.016;3.720;2023-05-10T07:14:54;17.30;99.90
20977;DHT22;10647;51.016;3.720;2023-05-10T07:17:22;17.40;99.90
20977;DHT22;10647;51.016;3.720;2023-05-10T07:19:49;17.30;99.90
20977;DHT22;10647;51.016;3.720;2023-05-10T07:22:18;17.30;99.90
20977;DHT22;10647;51.016;3.720;2023-05-10T07:24:45;17.20;99.90
20977;DHT22;10647;51.016;3.720;2023-05-10T07:27:14;16.90;99.90
20977;DHT22;10647;51.016;3.720;2023-05-10T07:29:42;16.90;99.90
20977;DHT22;10647;51.016;3.720;2023-05-10T07:32:09;16.90;99.90
20977;DHT22;10647;51.016;3.720;2023-05-10T07:34:37;16.90;99.90
20977;DHT22;10647;51.016;3.720;2023-05-10T07:37:05;17.00;99.90
20977;DHT22;10647;51.016;3.720;2023-05-10T07:39:33;17.10;99.90
20977;DHT22;10647;51.016;3.720;2023-05-10T07:42:01;17.30;99.90
20977;DHT22;10647;51.016;3.720;2023-05-10T07:44:29;17.40;99.90
20977;DHT22;10647;51.016;3.720;2023-05-10T07:46:56;17.40;99.90
20977;DHT22;10647;51.016;3.720;2023-05-10T07:49:24;17.50;99.90
20977;DHT22;10647;51.016;3.720;2023-05-10T07:51:51;17.70;99.90
20977;DHT22;10647;51.016;3.720;2023-05-10T07:54:20;17.80;99.90
20977;DHT22;10647;51.016;3.720;2023-05-10T07:56:48;17.80;99.90
20977;DHT22;10647;51.016;3.720;2023-05-10T07:59:16;17.80;99.90
20977;DHT22;10647;51.016;3.720;2023-05-10T08:01:44;17.80;99.90
20977;DHT22;10647;51.016;3.720;2023-05-10T08:04:13;17.70;99.90
20977;DHT22;10647;51.016;3.720;2023-05-10T08:06:41;17.80;99.90
20977;DHT22;10647;51.016;3.720;2023-05-10T08:09:09;17.80;99.90
20977;DHT22;10647;51.016;3.720;2023-05-10T08:11:37;17.80;99.90
20977;DHT22;10647;51.016;3.720;2023-05-10T08:14:04;17.80;99.90
20977;DHT22;10647;51.016;3.720;2023-05-10T08:16:32;17.80;99.90
20977;DHT22;10647;51.016;3.720;2023-05-10T08:19:00;17.70;99.90
20977;DHT22;10647;51.016;3.720;2023-05-10T08:21:28;17.70;99.90
20977;DHT22;10647;51.016;3.720;2023-05-10T08:23:57;17.50;99.90
20977;DHT22;10647;51.016;3.720;2023-05-10T08:26:25;17.30;99.90
20977;DHT22;10647;51.016;3.720;2023-05-10T08:28:53;17.20;99.90
20977;DHT22;10647;51.016;3.720;2023-05-10T08:31:21;17.20;99.90
20977;DHT22;10647;51.016;3.720;2023-05-10T08:33:49;17.20;99.90
20977;DHT22;10647;51.016;3.720;2023-05-10T08:36:18;17.10;99.90
20977;DHT22;10647;51.016;3.720;2023-05-10T08:38:49;17.00;99.90
20977;DHT22;10647;51.016;3.720;2023-05-10T08:41:23;16.90;99.90
20977;DHT22;10647;51.016;3.720;2023-05-10T08:43:53;16.90;99.90
20977;DHT22;10647;51.016;3.720;2023-05-10T08:46:22;17.00;99.90
20977;DHT22;10647;51.016;3.720;2023-05-10T08:48:51;17.10;99.90
20977;DHT22;10647;51.016;3.720;2023-05-10T08:51:21;17.10;99.90
20977;DHT22;10647;51.016;3.720;2023-05-10T08:53:48;17.10;99.90
20977;DHT22;10647;51.016;3.720;2023-05-10T08:56:16;17.20;99.90
20977;DHT22;10647;51.016;3.720;2023-05-10T08:58:44;17.20;99.90
20977;DHT22;10647;51.016;3.720;2023-05-10T09:01:13;17.20;99.90
20977;DHT22;10647;51.016;3.720;2023-05-10T09:03:40;17.10;99.90
20977;DHT22;10647;51.016;3.720;2023-05-10T09:06:08;17.20;99.90
20977;DHT22;10647;51.016;3.720;2023-05-10T09:11:25;17.50;99.90
20977;DHT22;10647;51.016;3.720;2023-05-10T09:13:54;17.60;99.90
20977;DHT22;10647;51.016;3.720;2023-05-10T09:16:23;17.60;99.90
20977;DHT22;10647;51.016;3.720;2023-05-10T09:18:51;17.80;99.90
20977;DHT22;10647;51.016;3.720;2023-05-10T09:21:20;17.90;99.90
20977;DHT22;10647;51.016;3.720;2023-05-10T09:23:48;18.10;99.90
20977;DHT22;10647;51.016;3.720;2023-05-10T09:26:16;18.10;99.90
20977;DHT22;10647;51.016;3.720;2023-05-10T09:29:01;18.60;99.90
20977;DHT22;10647;51.016;3.720;2023-05-10T09:31:46;18.90;99.90
20977;DHT22;10647;51.016;3.720;2023-05-10T09:34:32;19.20;99.90
20977;DHT22;10647;51.016;3.720;2023-05-10T09:37:02;19.60;99.90
20977;DHT22;10647;51.016;3.720;2023-05-10T09:39:36;19.80;99.90
20977;DHT22;10647;51.016;3.720;2023-05-10T09:42:06;19.90;99.90
20977;DHT22;10647;51.016;3.720;2023-05-10T09:44:35;20.00;99.90
20977;DHT22;10647;51.016;3.720;2023-05-10T09:47:04;19.90;99.90
20977;DHT22;10647;51.016;3.720;2023-05-10T09:49:32;19.80;99.90
20977;DHT22;10647;51.016;3.720;2023-05-10T09:52:07;19.80;99.90
20977;DHT22;10647;51.016;3.720;2023-05-10T09:54:35;19.90;99.90
20977;DHT22;10647;51.016;3.720;2023-05-10T09:57:02;19.90;99.90
20977;DHT22;10647;51.016;3.720;2023-05-10T09:59:32;19.80;99.90
20977;DHT22;10647;51.016;3.720;2023-05-10T10:02:00;20.00;99.90
20977;DHT22;10647;51.016;3.720;2023-05-10T10:04:30;20.10;99.90
20977;DHT22;10647;51.016;3.720;2023-05-10T10:07:17;20.20;99.90
20977;DHT22;10647;51.016;3.720;2023-05-10T10:09:50;20.10;99.90
20977;DHT22;10647;51.016;3.720;2023-05-10T10:12:17;20.30;99.90
20977;DHT22;10647;51.016;3.720;2023-05-10T10:14:46;20.50;99.90
20977;DHT22;10647;51.016;3.720;2023-05-10T10:17:16;20.50;99.90
20977;DHT22;10647;51.016;3.720;2023-05-10T10:19:45;20.70;99.90
20977;DHT22;10647;51.016;3.720;2023-05-10T10:22:12;21.00;99.90
20977;DHT22;10647;51.016;3.720;2023-05-10T10:24:40;20.70;99.90
20977;DHT22;10647;51.016;3.720;2023-05-10T10:30:15;21.10;99.90
20977;DHT22;10647;51.016;3.720;2023-05-10T10:33:06;21.40;99.90
20977;DHT22;10647;51.016;3.720;2023-05-10T10:35:31;21.70;99.90
20977;DHT22;10647;51.016;3.720;2023-05-10T10:38:07;21.90;99.90
20977;DHT22;10647;51.016;3.720;2023-05-10T10:40:35;22.00;99.90
20977;DHT22;10647;51.016;3.720;2023-05-10T10:43:26;21.90;99.90
20977;DHT22;10647;51.016;3.720;2023-05-10T10:46:14;22.00;99.90
20977;DHT22;10647;51.016;3.720;2023-05-10T10:49:08;21.90;99.90
20977;DHT22;10647;51.016;3.720;2023-05-10T10:51:38;21.80;99.90
20977;DHT22;10647;51.016;3.720;2023-05-10T10:54:12;21.50;99.90
20977;DHT22;10647;51.016;3.720;2023-05-10T10:56:39;21.00;99.90
20977;DHT22;10647;51.016;3.720;2023-05-10T10:59:09;20.60;99.90
20977;DHT22;10647;51.016;3.720;2023-05-10T11:01:37;20.30;99.90
20977;DHT22;10647;51.016;3.720;2023-05-10T11:06:42;20.60;99.90
20977;DHT22;10647;51.016;3.720;2023-05-10T11:09:11;20.70;99.90
20977;DHT22;10647;51.016;3.720;2023-05-10T11:11:53;20.50;99.90
20977;DHT22;10647;51.016;3.720;2023-05-10T11:14:24;20.30;99.90
20977;DHT22;10647;51.016;3.720;2023-05-10T11:17:27;19.70;99.90
20977;DHT22;10647;51.016;3.720;2023-05-10T11:20:13;19.40;99.90
20977;DHT22;10647;51.016;3.720;2023-05-10T11:22:53;19.30;99.90
20977;DHT22;10647;51.016;3.720;2023-05-10T11:25:28;19.40;99.90
20977;DHT22;10647;51.016;3.720;2023-05-10T11:27:56;19.50;99.90
20977;DHT22;10647;51.016;3.720;2023-05-10T11:30:23;19.40;99.90
20977;DHT22;10647;51.016;3.720;2023-05-10T11:32:51;19.50;99.90
20977;DHT22;10647;51.016;3.720;2023-05-10T11:35:19;19.30;99.90
20977;DHT22;10647;51.016;3.720;2023-05-10T11:37:48;18.90;99.90
20977;DHT22;10647;51.016;3.720;2023-05-10T11:40:16;19.00;99.90
20977;DHT22;10647;51.016;3.720;2023-05-10T11:42:43;19.10;99.90
20977;DHT22;10647;51.016;3.720;2023-05-10T11:45:11;19.20;99.90
20977;DHT22;10647;51.016;3.720;2023-05-10T11:47:39;19.50;99.90
20977;DHT22;10647;51.016;3.720;2023-05-10T11:50:10;19.90;99.90
20977;DHT22;10647;51.016;3.720;2023-05-10T11:52:37;20.20;99.90
20977;DHT22;10647;51.016;3.720;2023-05-10T11:55:06;20.90;99.90
20977;DHT22;10647;51.016;3.720;2023-05-10T11:57:33;21.10;99.90
20977;DHT22;10647;51.016;3.720;2023-05-10T12:00:07;21.60;99.90
20977;DHT22;10647;51.016;3.720;2023-05-10T12:02:35;22.10;99.90
20977;DHT22;10647;51.016;3.720;2023-05-10T12:05:03;22.50;99.90
20977;DHT22;10647;51.016;3.720;2023-05-10T12:07:32;22.50;99.90
20977;DHT22;10647;51.016;3.720;2023-05-10T12:10:07;22.70;99.90
20977;DHT22;10647;51.016;3.720;2023-05-10T12:12:43;22.70;99.90
20977;DHT22;10647;51.016;3.720;2023-05-10T12:15:19;22.50;99.90
20977;DHT22;10647;51.016;3.720;2023-05-10T12:17:47;22.80;99.90
20977;DHT22;10647;51.016;3.720;2023-05-10T12:20:23;22.70;99.90
20977;DHT22;10647;51.016;3.720;2023-05-10T12:22:53;22.30;99.90
20977;DHT22;10647;51.016;3.720;2023-05-10T12:25:24;22.20;99.90
20977;DHT22;10647;51.016;3.720;2023-05-10T12:27:55;22.30;99.90
20977;DHT22;10647;51.016;3.720;2023-05-10T12:30:24;22.00;99.90
20977;DHT22;10647;51.016;3.720;2023-05-10T12:32:53;21.60;99.90
20977;DHT22;10647;51.016;3.720;2023-05-10T12:35:21;21.40;99.90
20977;DHT22;10647;51.016;3.720;2023-05-10T12:37:53;21.10;99.90
20977;DHT22;10647;51.016;3.720;2023-05-10T12:40:21;20.80;99.90
20977;DHT22;10647;51.016;3.720;2023-05-10T12:42:50;20.60;99.90
20977;DHT22;10647;51.016;3.720;2023-05-10T12:45:19;20.30;99.90
20977;DHT22;10647;51.016;3.720;2023-05-10T12:47:46;20.40;99.90
20977;DHT22;10647;51.016;3.720;2023-05-10T12:50:14;20.30;99.90
20977;DHT22;10647;51.016;3.720;2023-05-10T12:52:44;20.00;99.90
20977;DHT22;10647;51.016;3.720;2023-05-10T12:55:11;19.90;99.90
20977;DHT22;10647;51.016;3.720;2023-05-10T12:57:42;19.80;99.90
20977;DHT22;10647;51.016;3.720;2023-05-10T13:00:12;19.50;99.90
20977;DHT22;10647;51.016;3.720;2023-05-10T13:02:39;19.10;99.90
20977;DHT22;10647;51.016;3.720;2023-05-10T13:05:07;18.40;99.90
20977;DHT22;10647;51.016;3.720;2023-05-10T13:07:41;17.60;99.90
20977;DHT22;10647;51.016;3.720;2023-05-10T13:10:10;16.90;99.90
20977;DHT22;10647;51.016;3.720;2023-05-10T13:12:38;16.20;99.90
20977;DHT22;10647;51.016;3.720;2023-05-10T13:15:06;16.10;99.90
20977;DHT22;10647;51.016;3.720;2023-05-10T13:17:36;16.10;99.90
20977;DHT22;10647;51.016;3.720;2023-05-10T13:20:24;16.10;99.90
20977;DHT22;10647;51.016;3.720;2023-05-10T13:22:52;16.10;99.90
20977;DHT22;10647;51.016;3.720;2023-05-10T13:25:20;16.20;99.90
20977;DHT22;10647;51.016;3.720;2023-05-10T13:27:47;16.20;99.90
20977;DHT22;10647;51.016;3.720;2023-05-10T13:30:21;16.30;99.90
20977;DHT22;10647;51.016;3.720;2023-05-10T13:32:50;16.40;99.90
20977;DHT22;10647;51.016;3.720;2023-05-10T13:35:17;16.50;99.90
20977;DHT22;10647;51.016;3.720;2023-05-10T13:37:45;16.50;99.90
20977;DHT22;10647;51.016;3.720;2023-05-10T13:40:12;16.70;99.90
20977;DHT22;10647;51.016;3.720;2023-05-10T13:43:01;16.60;99.90
20977;DHT22;10647;51.016;3.720;2023-05-10T13:45:28;16.80;99.90
20977;DHT22;10647;51.016;3.720;2023-05-10T13:47:56;16.90;99.90
20977;DHT22;10647;51.016;3.720;2023-05-10T13:50:30;17.10;99.90
20977;DHT22;10647;51.016;3.720;2023-05-10T13:52:57;17.20;99.90
20977;DHT22;10647;51.016;3.720;2023-05-10T13:55:25;17.30;99.90
20977;DHT22;10647;51.016;3.720;2023-05-10T13:57:53;17.30;99.90
20977;DHT22;10647;51.016;3.720;2023-05-10T14:00:20;17.50;99.90
20977;DHT22;10647;51.016;3.720;2023-05-10T14:02:48;17.40;99.90
20977;DHT22;10647;51.016;3.720;2023-05-10T14:05:15;17.30;99.90
20977;DHT22;10647;51.016;3.720;2023-05-10T14:07:43;17.30;99.90
20977;DHT22;10647;51.016;3.720;2023-05-10T14:10:10;17.20;99.90
20977;DHT22;10647;51.016;3.720;2023-05-10T14:12:38;17.20;99.90
20977;DHT22;10647;51.016;3.720;2023-05-10T14:15:06;17.20;99.90
20977;DHT22;10647;51.016;3.720;2023-05-10T14:17:34;17.20;99.90
20977;DHT22;10647;51.016;3.720;2023-05-10T14:20:01;17.30;99.90
20977;DHT22;10647;51.016;3.720;2023-05-10T14:22:30;17.40;99.90
20977;DHT22;10647;51.016;3.720;2023-05-10T14:24:57;17.50;99.90
20977;DHT22;10647;51.016;3.720;2023-05-10T14:27:25;17.40;99.90
20977;DHT22;10647;51.016;3.720;2023-05-10T14:29:52;17.40;99.90
20977;DHT22;10647;51.016;3.720;2023-05-10T14:32:20;17.50;99.90
20977;DHT22;10647;51.016;3.720;2023-05-10T14:34:48;17.60;99.90
20977;DHT22;10647;51.016;3.720;2023-05-10T14:37:15;17.70;99.90
20977;DHT22;10647;51.016;3.720;2023-05-10T14:39:43;17.70;99.90
20977;DHT22;10647;51.016;3.720;2023-05-10T14:42:13;17.80;99.90
20977;DHT22;10647;51.016;3.720;2023-05-10T14:44:41;18.00;99.90
20977;DHT22;10647;51.016;3.720;2023-05-10T14:47:08;18.10;99.90
20977;DHT22;10647;51.016;3.720;2023-05-10T14:49:36;18.20;99.90
20977;DHT22;10647;51.016;3.720;2023-05-10T14:52:04;18.30;99.90
20977;DHT22;10647;51.016;3.720;2023-05-10T14:54:31;18.40;99.90
20977;DHT22;10647;51.016;3.720;2023-05-10T14:57:00;18.60;99.90
20977;DHT22;10647;51.016;3.720;2023-05-10T14:59:29;18.90;99.90
20977;DHT22;10647;51.016;3.720;2023-05-10T15:01:56;19.10;99.90
20977;DHT22;10647;51.016;3.720;2023-05-10T15:04:24;19.30;99.90
20977;DHT22;10647;51.016;3.720;2023-05-10T15:06:51;19.40;99.90
20977;DHT22;10647;51.016;3.720;2023-05-10T15:09:19;19.50;99.90
20977;DHT22;10647;51.016;3.720;2023-05-10T15:11:48;19.60;99.90
20977;DHT22;10647;51.016;3.720;2023-05-10T15:14:16;19.50;99.90
20977;DHT22;10647;51.016;3.720;2023-05-10T15:16:45;19.60;99.90
20977;DHT22;10647;51.016;3.720;2023-05-10T15:19:13;19.60;99.90
20977;DHT22;10647;51.016;3.720;2023-05-10T15:21:40;19.70;99.90
20977;DHT22;10647;51.016;3.720;2023-05-10T15:24:09;19.80;99.90
20977;DHT22;10647;51.016;3.720;2023-05-10T15:26:37;19.80;99.90
20977;DHT22;10647;51.016;3.720;2023-05-10T15:29:04;19.60;99.90
20977;DHT22;10647;51.016;3.720;2023-05-10T15:31:32;19.20;99.90
20977;DHT22;10647;51.016;3.720;2023-05-10T15:34:01;19.10;99.90
20977;DHT22;10647;51.016;3.720;2023-05-10T15:36:31;19.20;99.90
20977;DHT22;10647;51.016;3.720;2023-05-10T15:38:59;19.30;99.90
20977;DHT22;10647;51.016;3.720;2023-05-10T15:41:27;19.40;99.90
20977;DHT22;10647;51.016;3.720;2023-05-10T15:43:55;19.40;99.90
20977;DHT22;10647;51.016;3.720;2023-05-10T15:46:22;19.40;99.90
20977;DHT22;10647;51.016;3.720;2023-05-10T15:48:50;19.40;99.90
20977;DHT22;10647;51.016;3.720;2023-05-10T15:51:17;19.30;99.90
20977;DHT22;10647;51.016;3.720;2023-05-10T15:53:45;19.40;99.90
20977;DHT22;10647;51.016;3.720;2023-05-10T15:56:13;19.40;99.90
20977;DHT22;10647;51.016;3.720;2023-05-10T15:58:41;19.40;99.90
20977;DHT22;10647;51.016;3.720;2023-05-10T16:01:09;19.40;99.90
20977;DHT22;10647;51.016;3.720;2023-05-10T16:03:40;19.30;99.90
20977;DHT22;10647;51.016;3.720;2023-05-10T16:06:09;19.30;99.90
20977;DHT22;10647;51.016;3.720;2023-05-10T16:08:37;19.20;99.90
20977;DHT22;10647;51.016;3.720;2023-05-10T16:11:04;19.00;99.90
20977;DHT22;10647;51.016;3.720;2023-05-10T16:13:34;19.20;99.90
20977;DHT22;10647;51.016;3.720;2023-05-10T16:16:02;19.20;99.90
20977;DHT22;10647;51.016;3.720;2023-05-10T16:18:30;19.50;99.90
20977;DHT22;10647;51.016;3.720;2023-05-10T16:20:58;19.50;99.90
20977;DHT22;10647;51.016;3.720;2023-05-10T16:23:27;19.70;99.90
20977;DHT22;10647;51.016;3.720;2023-05-10T16:25:55;19.90;99.90